• Join FlightAware (Why Join?)
  • Login
  • US Flag 
Gobble Gobble! 
05:45AM EST


 

Airport Tracker/Info


-or-


 

Live Flight TrackerFlight Track Log ✈ SWA286 ✈ 11-Apr-2013 ✈ KBWI - KRSW

Flight Track Log - Related Links

Times and Time Zones

All times are in EDT time to prevent confusion due to time zone crossing. See the SWA286 flight status page for this flight to view local times or setup timezone preferences in your user account.

Time Position Orientation Groundspeed Altitude Reporting Facility
EDT Latitude Longitude Course Direction KTS MPH feet Rate Location/Type
05:02PM 39.1167 -76.6167 142° Southeast 204 235 2,800  Level Potomac TRACON
05:03PM 39.0667 -76.5667 142° Southeast 258 297 4,800 3,000 Climbing Potomac TRACON
05:04PM 38.9833 -76.5167 155° Southeast 277 319 8,900 2,640 Climbing Potomac TRACON
05:06PM 38.7908 -76.5264 182° South 305 351 13,900 1,740 Climbing Washington Center
05:07PM 38.7133 -76.5947 215° Southwest 313 360 15,000 2,040 Climbing Washington Center
05:08PM 38.6333 -76.6628 214° Southwest 334 384 18,000 2,880 Climbing Washington Center
05:09PM 38.5475 -76.7225 209° Southwest 348 400 20,800 2,640 Climbing Washington Center
05:10PM 38.4392 -76.7131 176° South 368 423 23,300 2,100 Climbing Washington Center
05:11PM 38.3244 -76.6953 173° South 385 443 25,000 1,500 Climbing Washington Center
05:12PM 38.2183 -76.6781 173° South 408 470 26,400 1,740 Climbing Washington Center
05:13PM 38.0956 -76.6631 175° South 430 495 28,500 2,160 Climbing Washington Center
05:14PM 37.9622 -76.6453 174° South 449 517 30,800 1,980 Climbing Washington Center
05:15PM 37.8414 -76.6278 173° South 449 517 32,500 1,560 Climbing Washington Center
05:16PM 37.7183 -76.6131 175° South 444 511 34,000 1,260 Climbing Washington Center
05:17PM 37.5956 -76.5956 174° South 444 511 35,100 960 Climbing Washington Center
05:18PM 37.4892 -76.5811 174° South 444 511 36,000 420 Climbing Washington Center
05:19PM 37.3683 -76.5667 175° South 444 511 36,000  Level Washington Center
05:20PM 37.2453 -76.5572 177° South 444 511 36,000  Level Washington Center
05:21PM 37.1344 -76.6078 200° South 427 491 36,000  Level Washington Center
05:22PM 37.0256 -76.6586 200° South 420 483 36,000  Level Washington Center
05:23PM 36.9186 -76.7117 202° Southwest 420 483 36,000  Level Washington Center
05:24PM 36.8117 -76.7619 201° Southwest 420 483 36,000  Level Washington Center
05:25PM 36.7028 -76.8147 201° Southwest 420 483 36,000  Level Washington Center
05:26PM 36.5936 -76.8647 200° South 420 483 36,000  Level Washington Center
05:27PM 36.4867 -76.9147 201° Southwest 415 478 36,000  Level Washington Center
05:28PM 36.3778 -76.9669 201° Southwest 415 478 36,000  Level Washington Center
05:29PM 36.2686 -77.0142 199° South 415 478 36,000  Level Washington Center
05:30PM 36.1575 -77.0661 201° Southwest 415 478 36,000  Level Washington Center
05:31PM 36.0483 -77.1153 200° South 415 478 36,000  Level Washington Center
05:32PM 35.9456 -77.1647 201° Southwest 410 472 36,000  Level Washington Center
05:33PM 35.8364 -77.2139 200° South 416 479 36,000  Level Washington Center
05:34PM 35.7272 -77.2603 199° South 421 484 36,000  Level Washington Center
05:35PM 35.6158 -77.3142 201° Southwest 421 484 36,000  Level Washington Center
05:36PM 35.5067 -77.3603 199° South 421 484 36,000  Level Washington Center
05:37PM 35.3975 -77.4089 200° South 426 490 36,000  Level Washington Center
05:38PM 35.2861 -77.4597 200° South 426 490 36,000  Level Washington Center
05:39PM 35.1747 -77.5106 200° South 426 490 36,000  Level Washington Center
05:40PM 35.0633 -77.5586 199° South 431 496 36,000  Level Washington Center
05:41PM 34.9539 -77.6067 200° South 431 496 36,000  Level Washington Center
05:42PM 34.8447 -77.6544 200° South 431 496 36,000  Level Washington Center
05:43PM 34.7372 -77.7075 202° Southwest 431 496 36,000  Level Washington Center
05:44PM 34.6300 -77.7553 200° South 426 490 36,000  Level Washington Center
05:45PM 34.5186 -77.8025 199° South 426 490 36,000 -360 Level Washington Center
05:46PM 34.4092 -77.8525 201° Southwest 426 490 35,300 -840 Descending Washington Center
05:47PM 34.2958 -77.8947 197° South 431 496 34,400 -540 Descending Washington Center
05:49PM 34.1025 -77.9447 192° South 438 504 34,000 -180 Descending Jacksonville Center
05:50PM 33.9869 -77.9789 194° South 433 498 34,000  Level Jacksonville Center
05:51PM 33.8714 -78.0103 193° South 433 498 34,000  Level Jacksonville Center
05:52PM 33.7517 -78.0469 194° South 433 498 34,000 -1,020 Level Jacksonville Center
05:53PM 33.6197 -78.0867 194° South 440 506 32,000 -1,020 Descending Jacksonville Center
05:54PM 33.5000 -78.1206 193° South 445 512 32,000  Level Jacksonville Center
05:55PM 33.3844 -78.1542 194° South 445 512 32,000  Level Jacksonville Center
05:56PM 33.2625 -78.1853 192° South 445 512 32,000  Level Jacksonville Center
05:57PM 33.1406 -78.2192 193° South 450 518 32,000  Level Jacksonville Center
05:58PM 33.0208 -78.2550 194° South 450 518 32,000  Level Jacksonville Center
05:59PM 32.8989 -78.2886 193° South 450 518 32,000  Level Jacksonville Center
06:00PM 32.7750 -78.3244 194° South 450 518 32,000  Level Jacksonville Center
06:01PM 32.6511 -78.3603 194° South 450 518 32,000  Level Jacksonville Center
06:02PM 32.5250 -78.3914 192° South 456 525 32,000  Level Jacksonville Center
06:03PM 32.3989 -78.4269 193° South 456 525 32,000  Level Jacksonville Center
06:04PM 32.2914 -78.4619 195° South 456 525 32,000 -540 Level Jacksonville Center
06:05PM 32.1656 -78.4997 194° South 456 525 31,000 -960 Descending Jacksonville Center
06:06PM 32.0458 -78.5375 195° South 456 525 30,100 -540 Descending Jacksonville Center
06:07PM 31.9217 -78.5728 194° South 456 525 30,000 -60 Descending Jacksonville Center
06:08PM 31.7997 -78.6053 193° South 456 525 30,000  Level Jacksonville Center
06:09PM 31.6736 -78.6403 193° South 461 531 30,000  Level Jacksonville Center
06:10PM 31.5475 -78.6803 195° South 461 531 30,000  Level Jacksonville Center
06:11PM 31.4233 -78.7125 192° South 466 536 30,000  Level Jacksonville Center
06:12PM 31.2950 -78.7500 194° South 472 543 30,000  Level Jacksonville Center
06:13PM 31.1669 -78.7897 195° South 472 543 30,000  Level Jacksonville Center
06:14PM 31.0408 -78.8267 194° South 467 537 30,000  Level Jacksonville Center
06:15PM 30.9042 -78.8617 192° South 465 535 30,000  Level Jacksonville Center
06:16PM 30.7800 -78.8983 194° South 471 542 30,000  Level Jacksonville Center
06:17PM 30.6475 -78.9328 193° South 473 544 30,000  Level Jacksonville Center
06:19PM 30.3786 -79.0169 195° South 459 528 30,000  Level Miami Center
06:20PM 30.2550 -79.0672 199° South 470 541 30,000  Level Miami Center
06:21PM 30.1206 -79.1269 201° Southwest 478 550 30,000 -180 Level Miami Center
06:22PM 30.0092 -79.1892 206° Southwest 472 543 29,700 -660 Descending Miami Center
06:23PM 29.8833 -79.2319 196° South 472 543 28,700 -1,380 Descending Miami Center
06:24PM 29.7656 -79.2892 203° Southwest 466 536 27,000 -900 Descending Miami Center
06:25PM 29.6606 -79.3369 202° Southwest 466 536 27,000  Level Miami Center
06:26PM 29.5386 -79.3889 200° South 461 531 27,000  Level Miami Center
06:27PM 29.4189 -79.4386 200° South 461 531 27,000  Level Miami Center
06:28PM 29.2989 -79.4881 200° South 466 536 27,000  Level Miami Center
06:29PM 29.1750 -79.5350 198° South 461 531 27,000  Level Miami Center
06:30PM 29.0614 -79.5892 203° Southwest 467 537 27,000  Level Miami Center
06:31PM 28.9456 -79.6433 202° Southwest 462 532 27,000  Level Miami Center
06:32PM 28.8317 -79.7067 206° Southwest 450 518 27,000  Level Miami Center
06:33PM 28.7625 -79.8233 236° Southwest 434 499 27,000  Level Miami Center
06:34PM 28.6914 -79.9375 235° Southwest 434 499 27,000 -240 Level Miami Center
06:35PM 28.6239 -80.0608 238° Southwest 441 507 26,600 -1,500 Descending Miami Center
06:36PM 28.5650 -80.1681 238° Southwest 423 487 24,100 -1,320 Descending Miami Center
06:37PM 28.5128 -80.2681 239° Southwest 418 481 24,000 -60 Descending Miami Center
06:38PM 28.4619 -80.3822 243° Southwest 408 470 24,000 -540 Level Miami Center
06:39PM 28.4128 -80.5128 247° West 408 470 23,000 -1,020 Descending Miami Center
06:40PM 28.3311 -80.6019 224° Southwest 403 464 22,000 -1,020 Descending Miami Center
06:41PM 28.2272 -80.6644 208° Southwest 405 466 21,000 -1,020 Descending Miami Center
06:42PM 28.1317 -80.7319 212° Southwest 416 479 20,000 -540 Descending Miami Center
06:43PM 28.0336 -80.7992 211° Southwest 416 479 20,000 -360 Level Miami Center
06:44PM 27.9361 -80.8617 210° Southwest 411 473 19,300 -960 Descending Miami Center
06:45PM 27.8467 -80.9242 212° Southwest 406 467 18,100 -1,200 Descending Miami Center
06:46PM 27.7636 -80.9797 211° Southwest 365 420 17,000 -1,140 Descending Miami Center
06:47PM 27.6911 -81.0289 211° Southwest 332 382 15,900 -960 Descending Miami Center
06:48PM 27.6231 -81.0756 211° Southwest 318 366 15,100 -900 Descending Miami Center
06:49PM 27.5400 -81.1286 210° Southwest 337 388 14,200 -1,020 Descending Miami Center
06:50PM 27.4506 -81.1908 212° Southwest 343 395 13,100 -1,080 Descending Miami Center
06:51PM 27.3717 -81.2439 211° Southwest 343 395 12,100 -960 Descending Miami Center
06:52PM 27.2972 -81.2903 209° Southwest 343 395 11,200 -1,080 Descending Miami Center
06:53PM 27.2228 -81.3411 211° Southwest 331 381 10,000 -660 Descending Miami Center
06:54PM 27.1375 -81.3961 210° Southwest 326 375 9,900 -60 Descending Miami Center
06:55PM 27.0628 -81.4469 211° Southwest 326 375 9,900  Level Miami Center
06:56PM 26.9828 -81.4717 195° South 297 342 9,900 -180 Level Miami Center
06:57PM 26.9108 -81.4339 155° Southeast 284 327 9,600 -900 Descending Miami Center
06:58PM 26.8408 -81.3986 156° South 276 318 8,200 -1,500 Descending Miami Center
06:59PM 26.7597 -81.3883 174° South 276 318 6,600 -1,500 Descending Miami Center
07:00PM 26.6886 -81.3972 186° South 266 306 5,300 -1,320 Descending Miami Center
07:01PM 26.6347 -81.4464 219° Southwest 251 289 4,000 -660 Descending Miami Center
07:02PM 26.5953 -81.5075 234° Southwest 258 297 4,000  Level Miami Center
07:03PM 26.5514 -81.5778 235° Southwest 263 303 4,000  Level Miami Center
07:05PM 26.5381 -81.7324 318° Northwest  Level Estimated
07:12PM 26.5333 -81.7500 318° Northwest  Level FlightAware Approximate
07:13PM 26.5362 -81.7552 318° Northwest  Level Estimated
07:14PM 26.5333 -81.7500 318° Northwest  Level FlightAware Approximate
07:15PM 26.5362 -81.7552 318° Northwest  Level Estimated
07:16PM 26.5333 -81.7500 318° Northwest  Level FlightAware Approximate
07:17PM 26.5362 -81.7552 318° Northwest  Level Estimated
07:18PM 26.5333 -81.7500 318° Northwest  Level FlightAware Approximate
07:19PM 26.5362 -81.7552 318° Northwest  Level Estimated
07:20PM 26.5333 -81.7500 318° Northwest  Level FlightAware Approximate
07:21PM 26.5362 -81.7552 318° Northwest  Level Estimated
07:22PM 26.5333 -81.7500 318° Northwest  Level FlightAware Approximate